»·PEaware :: N153MS KSMO-KIZA

N153MS :: KSMO-KIZA

FLIGHT INFORMATION

Flight Status: Arrived
Operator: Privately registered:
United States
More flights under this callsign
Pilot: Shane N. (25833)
Aircraft: MOONEY M-20K/M ENCORE BRAVO
(M20T)
More flights by this aircraft type
Origin: KSMO Santa Monica Mun
United States
Destination: KIZA Santa Ynez
United States
More flights between these airports :: More routes between these airports
Route: +V107 SADDE V299 VTU V25 RZS
File this flight plan on PilotEdge
Remarks:
Altitude:
(Current/Filed)
10,000ft
Speed:
(Current/Filed)
180kts
Departed: 08-Nov-19 08:44 AM
Arrived: 08-Nov-19 09:20 AM
Distance/Time
Traveled:
74nm/0:36
Distance/Time
To Go:
Arrived

Flight Plot

Page will automatically refresh every two minutes.

Flight plan parsing failed; only flown route is shown


Map Options




Map Legend


Flown Route
Filed Route
Departure Airport
Arrival Airport
Navaid (VOR, NDB)
Fix

Horizontal Profiles

Position Reports

Time Latitude Longitude Heading Altitude Ground
Speed
08-Nov-19 08:28 34.015836 -118.452939 39 148ft 0kts
08-Nov-19 08:29 34.015836 -118.452939 39 148ft 0kts
08-Nov-19 08:30 34.015836 -118.452939 39 148ft 0kts
08-Nov-19 08:31 34.015836 -118.452939 39 148ft 0kts
08-Nov-19 08:32 34.015836 -118.452939 39 148ft 0kts
08-Nov-19 08:33 34.015836 -118.452939 39 148ft 0kts
08-Nov-19 08:34 34.015836 -118.452939 39 148ft 0kts
08-Nov-19 08:35 34.015836 -118.452939 39 148ft 0kts
08-Nov-19 08:36 34.015836 -118.452939 39 148ft 0kts
08-Nov-19 08:37 34.016253 -118.452104 59 150ft 21kts
08-Nov-19 08:38 34.019935 -118.447186 348 173ft 1kts
08-Nov-19 08:39 34.019630 -118.447731 176 171ft 0kts
08-Nov-19 08:40 34.019630 -118.447731 176 171ft 0kts
08-Nov-19 08:41 34.019630 -118.447731 176 171ft 0kts
08-Nov-19 08:42 34.019630 -118.447731 176 171ft 0kts
08-Nov-19 08:43 34.013979 -118.453507 221 215ft 95kts
08-Nov-19 08:44 33.994350 -118.481288 235 1609ft 112kts
08-Nov-19 08:45 33.994807 -118.518315 276 3133ft 114kts
08-Nov-19 08:46 33.998456 -118.561358 276 3995ft 165kts
08-Nov-19 08:47 34.008480 -118.615788 284 5249ft 149kts
08-Nov-19 08:48 34.017183 -118.659155 283 7015ft 123kts
08-Nov-19 08:49 34.024232 -118.694403 281 8767ft 91kts
08-Nov-19 08:50 34.030923 -118.736340 287 9780ft 134kts
08-Nov-19 08:51 34.045294 -118.789334 289 9998ft 194kts
08-Nov-19 08:52 34.063156 -118.854693 288 10000ft 206kts
08-Nov-19 08:53 34.080541 -118.919606 288 10003ft 201kts
08-Nov-19 08:54 34.097688 -118.983790 289 9617ft 199kts
08-Nov-19 08:55 34.115249 -119.046273 299 8612ft 193kts
08-Nov-19 08:56 34.143684 -119.100847 305 7997ft 189kts
08-Nov-19 08:57 34.172122 -119.152774 305 7993ft 182kts
08-Nov-19 08:58 34.200337 -119.204094 305 7992ft 183kts
08-Nov-19 08:59 34.228591 -119.255518 305 7991ft 183kts
08-Nov-19 09:00 34.256756 -119.306849 305 7991ft 182kts
08-Nov-19 09:01 34.284812 -119.358106 305 7992ft 182kts
08-Nov-19 09:02 34.311188 -119.411553 300 7547ft 187kts
08-Nov-19 09:03 34.336251 -119.467162 300 6747ft 187kts
08-Nov-19 09:04 34.361021 -119.522372 300 6016ft 181kts
08-Nov-19 09:05 34.383154 -119.571978 300 5998ft 157kts
08-Nov-19 09:06 34.403433 -119.617430 300 6000ft 149kts
08-Nov-19 09:07 34.423083 -119.661445 299 5999ft 147kts
08-Nov-19 09:08 34.442781 -119.705625 299 6000ft 155kts
08-Nov-19 09:09 34.462898 -119.750741 299 6000ft 162kts
08-Nov-19 09:10 34.484567 -119.799431 299 6003ft 164kts
08-Nov-19 09:11 34.506396 -119.848570 299 6008ft 165kts
08-Nov-19 09:12 34.535840 -119.892645 308 5678ft 166kts
08-Nov-19 09:13 34.561950 -119.939050 303 5411ft 161kts
08-Nov-19 09:14 34.574706 -119.982209 283 3948ft 117kts
08-Nov-19 09:15 34.580823 -120.019959 279 2738ft 108kts
08-Nov-19 09:16 34.591061 -120.052026 305 1642ft 105kts
08-Nov-19 09:17 34.600020 -120.086077 267 1136ft 85kts
08-Nov-19 09:18 34.608985 -120.084704 117 786ft 81kts
08-Nov-19 09:19 34.607390 -120.074721 186 672ft 0kts
08-Nov-19 09:20 34.607390 -120.074721 186 672ft 0kts
08-Nov-19 09:24 34.607389 -120.074721 186 672ft 0kts
08-Nov-19 09:25 34.607730 -120.079903 266 662ft 0kts
08-Nov-19 09:26 34.605645 -120.065387 94 914ft 98kts
08-Nov-19 09:27 34.604451 -120.029821 90 1903ft 110kts
08-Nov-19 09:28 34.602649 -119.992348 90 3472ft 113kts
08-Nov-19 09:29 34.600641 -119.954307 89 5035ft 114kts
08-Nov-19 09:30 34.598579 -119.915607 89 6595ft 116kts
08-Nov-19 09:31 34.596496 -119.876733 89 8133ft 117kts
08-Nov-19 09:32 34.594363 -119.836909 90 9495ft 132kts
08-Nov-19 09:33 34.590408 -119.779969 103 9499ft 193kts

Navigation Log

Ident Type
Flight plan parsing failed, navigation log unavailable